New Matamoras, Ohio
Current Conditions -  °F | °C
As of 7:53 PM on Monday 22 Dec 2014 (Local Time) from KPKB Reporting Station
Clear Clear  
Wind Chill: 45°   Ceiling: Unl
Heat Index: 48°   Visibility: 10mi
Dew Point: 36°   Wind: 6mph
Humidity: 63%   Direction: 100°E
Pressure: 29.91"   Gusts: NA
Location:  39.52°N, 81.07°W
Report Text: KPKB 230053Z 10005KT 10SM CLR 09/02 A2991 RMK AO2 SLP131 T00890022
Loading
Personal Weather Stations






























Interactive Weather Map New forecast layout! Learn more

10-Day Weather Forecast

Advertisements
Track Severe Weather on mobile